KCKP

Cherokee County Regional Airport

Cherokee, Iowa, USA
METAR KCKP 151335Z AUTO 25008KT 10SM OVC050 00/M03 A2996 RMK AO2 T00001030
Observed Flight Rules
Dec-15 @ 13:35 UTC (21 minutes ago) Visual Flight Rules
Wind Visibility Clouds
250° at 8 knots 10 miles
  • Overcast at 5,000' AGL
Temperatures Readings
Current 0°C / 32°F
Dewpoint -3°C / 27°F
Humidity 80%
Altimeter 29.96" Hg
Pressure 1015 hPa
Elevation 374
METAR KCKP 151335Z AUTO 25008KT 10SM OVC050 00/M03 A2996 RMK AO2 T00001030
Observed Flight Rules
Dec-15 @ 13:35 UTC
(21 minutes ago)
VFR
Wind Visibility
250° at 8 knots 10 miles
Clouds
  • Overcast at 5,000' AGL
Temperature Dewpoint
0°C / 32°F -3°C / 27°F
Humidity Altimeter Pressure
80% 29.96" Hg 1015 hPa